The Official Home Page Of The Professional Rodeo Cowboys Association PRCA RAM WORLD STANDINGS
ProRodeoTv.Com



Official Gear Of The PRCA

PRCA Stock Statistics

SEARCH BY:
Stock Rodeo Contestant Stock Contractor

Devan Reilly

EVENT:
Unofficial results reflect placement at time of Web posting and can change.

SEASON BREAKDOWN

Season Attempts Qual Rides Re-rides Ride %
2018 56 53 0 94.64 %
2017 90 83 0 92.22 %
2016 69 66 0 95.65 %
2015 92 81 0 88.04 %
2014 21 21 0 100.00 %
Totals 328 304 0 0.00 %

RODEO DETAIL

Date Location Rodeo SC Brand Ride Comments Stock Score Contestant Score
8/25/2018 Rapid City, SD Range Days Rodeo BH 421 79.00 18.00 / 20.00 20.00 / 21.00
8/24/2018 Pueblo, CO Colorado State Fair & Rodeo HV 203 0.00 22.00 / 20.00 0.00 / 0.00
8/23/2018 Tremonton, UT Golden Spike Rodeo BT 9ME 79.00 18.00 / 20.00 22.00 / 19.00
8/18/2018 Baker, MT Fallon County Fair & Rodeo BR 203 71.00 17.00 / 19.00 19.00 / 16.00
8/17/2018 Billings, MT Yellowstone River Round-Up SA 591 76.00 20.50 / 19.50 20.00 / 16.00
8/16/2018 Circle, MT McCone County Fair PRCA Rodeo JB 107 85.50 21.00 / 20.00 22.50 / 22.00
8/11/2018 Missoula, MT Missoula Stampede SA 806 70.00 17.00 / 17.00 22.00 / 14.00
8/10/2018 Bozeman, MT Bozeman Stampede SA 801 76.00 17.00 / 19.00 22.00 / 18.00
8/9/2018 Logan, UT Cache County Fair And Rodeo BT AM2 76.00 19.00 / 18.50 19.00 / 19.50
8/8/2018 Jerome, ID Jerome County Fair And Rodeo CH 119 78.50 22.50 / 21.00 21.00 / 14.00
8/5/2018 Castle Rock, CO Douglas County Fair and Rodeo SM 800 0.00 22.00 / 21.00 0.00 / 0.00
8/4/2018 Heber City, UT Mountain Valley Stampede PR 8245 79.00 18.00 / 19.00 21.00 / 21.00
8/3/2018 Idaho Falls, ID War Bonnet Roundup Rodeo C5 D39 76.00 23.00 / 23.00 15.00 / 15.00
8/2/2018 Great Falls, MT Big Sky Pro Rodeo Roundup SA 719 80.50 19.00 / 20.50 21.00 / 20.00
7/31/2018 Glasgow, MT Northeast Montana Fair & Rodeo JB 767 74.00 19.00 / 19.00 18.00 / 18.00
7/27/2018 Deadwood, SD Deadwood Days Of 76 Rodeo BR 13 82.00 19.00 / 19.00 22.00 / 22.00
7/26/2018 Lewistown, MT Central Montana Ram Pro Rodeo SA 826 80.00 20.00 / 18.00 23.00 / 19.00
7/24/2018 Cheyenne, WY Cheyenne Frontier Days NW 44 74.00 21.00 / 21.50 17.00 / 14.50
7/23/2018 Cheyenne, WY Cheyenne Frontier Days DK 664 81.00 17.50 / 19.50 22.00 / 22.00
7/20/2018 Salinas, CA California Rodeo Salinas CH 015 68.00 18.00 / 18.00 19.00 / 13.00
7/19/2018 Ogden, UT Ogden Pioneer Days TH K7 84.50 20.00 / 21.50 22.00 / 21.00
7/13/2018 Sheridan, WY Sheridan WYO Rodeo SA 238 83.50 20.00 / 20.50 22.00 / 21.00
7/12/2018 Casper, WY Central Wyoming Fair & PRCA Rodeo CB V65 73.00 17.00 / 17.00 20.00 / 19.00
7/4/2018 Cody, WY Cody Stampede FR -102 82.00 21.00 / 22.00 21.00 / 18.00
7/4/2018 Red Lodge, MT Home Of Champions Rodeo BH 927 82.00 19.00 / 20.00 23.00 / 20.00
Page of 3
Per Page
 
 
 
PRCA National Sponsors
MGM Grand Polaris Ranger American Quarter Horse Association Cinch Jeans
Copyright © 2018 Professional Rodeo Cowboys Association. All rights reserved. No portion of ProRodeo.com may be duplicated, redistributed or manipulated in any form. By accessing any information beyond this page, you agree to abide by the Terms of Use.
PRCA Wrangler National Finals Rodeo Wrangler ProRodeo Tour Finale Presented by Justin Boots Xtreme Bulls RAM National Circuit Finals Rodeo ProRodeo Gear ProRodeo Tour